Terminal Aerodrome Forecast
Issued by NWS Charleston, WV

Current Version | Previous Version | Graphics & Text | Print | Product List | Glossary On
Versions: 1 2 3 4 5 6 7 8 9 10 11 12 13 14 15 16 17 18 19 20 21 22 23 24 25 26 27 28 29 30 31 32
000
FTUS41 KRLX 190700 AAA
TAFEKN
TAF AMD
KEKN 190759Z 1908/2006 00000KT 4SM RA BR SCT004 OVC035
     FM191300 15005KT 3SM RA BR OVC025
     FM191700 17006KT 4SM SHRA BR OVC025
     FM200000 00000KT 6SM SHRA BR BKN040
     FM200400 00000KT P6SM BKN040=

USA.gov is the U.S. government's official web portal to all federal, state and local government web resources and services.